Terminal Aerodrome Forecast
Issued by NWS North Platte, NE

Home | Current Version | Previous Version | Graphics & Text | Print | Product List | Glossary On
Versions: 1 2 3 4 5 6 7 8 9 10 11 12 13 14 15 16 17 18 19 20 21 22
000
FTUS43 KLBF 250400 AAA
TAFVTN
TAF AMD
KVTN 250412Z 2504/2524 07007KT P6SM OVC008
     FM250800 VRB05KT 2SM BR OVC005
     FM251400 35005KT P6SM OVC015
     FM251800 VRB06KT P6SM BKN025 PROB30 2519/2523 -TSRA OVC025CB=

USA.gov is the U.S. government's official web portal to all federal, state and local government web resources and services.